sensor_id;sensor_type;location;lat;lon;timestamp;P1;P2;P0
73148;PMS7003;61346;48.930;2.266;2023-02-15T00:01:43;81.75;62.00;38.50
73148;PMS7003;61346;48.930;2.266;2023-02-15T00:04:09;79.00;62.25;38.00
73148;PMS7003;61346;48.930;2.266;2023-02-15T00:06:37;79.25;61.25;39.25
73148;PMS7003;61346;48.930;2.266;2023-02-15T00:09:04;75.00;59.25;38.75
73148;PMS7003;61346;48.930;2.266;2023-02-15T00:11:30;78.00;59.00;37.75
73148;PMS7003;61346;48.930;2.266;2023-02-15T00:14:11;82.00;64.50;40.00
73148;PMS7003;61346;48.930;2.266;2023-02-15T00:16:42;78.50;60.50;37.00
73148;PMS7003;61346;48.930;2.266;2023-02-15T00:19:09;80.25;61.50;39.00
73148;PMS7003;61346;48.930;2.266;2023-02-15T00:21:36;82.25;61.75;40.00
73148;PMS7003;61346;48.930;2.266;2023-02-15T00:24:04;81.25;62.75;38.50
73148;PMS7003;61346;48.930;2.266;2023-02-15T00:26:31;80.50;62.75;39.25
73148;PMS7003;61346;48.930;2.266;2023-02-15T00:28:57;78.50;60.75;39.50
73148;PMS7003;61346;48.930;2.266;2023-02-15T00:31:26;76.75;60.00;39.25
73148;PMS7003;61346;48.930;2.266;2023-02-15T00:33:55;80.50;61.00;38.00
73148;PMS7003;61346;48.930;2.266;2023-02-15T00:36:20;75.00;57.50;35.50
73148;PMS7003;61346;48.930;2.266;2023-02-15T00:38:46;79.00;59.50;37.50
73148;PMS7003;61346;48.930;2.266;2023-02-15T00:41:12;79.50;61.50;38.25
73148;PMS7003;61346;48.930;2.266;2023-02-15T00:43:37;82.00;62.75;39.25
73148;PMS7003;61346;48.930;2.266;2023-02-15T00:46:03;77.75;60.50;37.00
73148;PMS7003;61346;48.930;2.266;2023-02-15T00:48:30;80.75;61.50;39.25
73148;PMS7003;61346;48.930;2.266;2023-02-15T00:50:57;82.25;61.25;37.00
73148;PMS7003;61346;48.930;2.266;2023-02-15T00:53:24;78.00;61.00;40.00
73148;PMS7003;61346;48.930;2.266;2023-02-15T00:55:52;81.50;63.00;37.25
73148;PMS7003;61346;48.930;2.266;2023-02-15T00:58:22;82.00;62.00;40.00
73148;PMS7003;61346;48.930;2.266;2023-02-15T01:00:48;80.00;63.00;40.00
73148;PMS7003;61346;48.930;2.266;2023-02-15T01:03:15;78.50;60.00;39.75
73148;PMS7003;61346;48.930;2.266;2023-02-15T01:05:46;80.75;63.50;39.25
73148;PMS7003;61346;48.930;2.266;2023-02-15T01:08:15;86.25;65.50;41.00
73148;PMS7003;61346;48.930;2.266;2023-02-15T01:10:41;82.25;63.25;41.00
73148;PMS7003;61346;48.930;2.266;2023-02-15T01:13:08;80.75;60.75;38.50
73148;PMS7003;61346;48.930;2.266;2023-02-15T01:15:36;78.50;62.75;40.25
73148;PMS7003;61346;48.930;2.266;2023-02-15T01:18:05;80.75;63.00;40.00
73148;PMS7003;61346;48.930;2.266;2023-02-15T01:20:33;74.25;61.00;38.25
73148;PMS7003;61346;48.930;2.266;2023-02-15T01:23:00;84.25;67.25;40.50
73148;PMS7003;61346;48.930;2.266;2023-02-15T01:25:25;80.50;60.50;39.75
73148;PMS7003;61346;48.930;2.266;2023-02-15T01:27:50;81.50;63.50;40.25
73148;PMS7003;61346;48.930;2.266;2023-02-15T01:30:16;81.25;63.75;40.00
73148;PMS7003;61346;48.930;2.266;2023-02-15T01:32:41;76.00;58.50;38.75
73148;PMS7003;61346;48.930;2.266;2023-02-15T01:35:08;80.50;62.00;39.00
73148;PMS7003;61346;48.930;2.266;2023-02-15T01:37:36;76.00;60.00;38.00
73148;PMS7003;61346;48.930;2.266;2023-02-15T01:40:05;84.50;62.00;40.00
73148;PMS7003;61346;48.930;2.266;2023-02-15T01:42:33;78.75;61.50;40.75
73148;PMS7003;61346;48.930;2.266;2023-02-15T01:44:59;84.50;66.00;40.25
73148;PMS7003;61346;48.930;2.266;2023-02-15T01:47:32;76.50;61.50;41.00
73148;PMS7003;61346;48.930;2.266;2023-02-15T01:50:02;83.75;64.00;39.50
73148;PMS7003;61346;48.930;2.266;2023-02-15T01:52:41;80.75;64.25;40.25
73148;PMS7003;61346;48.930;2.266;2023-02-15T01:55:13;82.50;63.75;40.50
73148;PMS7003;61346;48.930;2.266;2023-02-15T01:57:38;85.00;65.25;41.50
73148;PMS7003;61346;48.930;2.266;2023-02-15T02:00:06;83.75;63.25;41.00
73148;PMS7003;61346;48.930;2.266;2023-02-15T02:02:33;74.25;60.00;35.00
73148;PMS7003;61346;48.930;2.266;2023-02-15T02:05:03;79.00;63.00;41.50
73148;PMS7003;61346;48.930;2.266;2023-02-15T02:07:33;75.25;59.25;38.25
73148;PMS7003;61346;48.930;2.266;2023-02-15T02:10:04;80.25;62.00;38.00
73148;PMS7003;61346;48.930;2.266;2023-02-15T02:12:31;82.50;63.75;41.00
73148;PMS7003;61346;48.930;2.266;2023-02-15T02:14:57;83.75;63.00;38.25
73148;PMS7003;61346;48.930;2.266;2023-02-15T02:19:54;79.00;62.67;42.00
73148;PMS7003;61346;48.930;2.266;2023-02-15T02:22:37;84.00;64.75;40.25
73148;PMS7003;61346;48.930;2.266;2023-02-15T02:44:56;89.50;66.00;39.75
73148;PMS7003;61346;48.930;2.266;2023-02-15T02:47:50;86.25;67.75;41.00
73148;PMS7003;61346;48.930;2.266;2023-02-15T02:50:22;83.50;65.00;41.50
73148;PMS7003;61346;48.930;2.266;2023-02-15T02:52:51;80.25;62.50;38.25
73148;PMS7003;61346;48.930;2.266;2023-02-15T02:55:23;84.50;65.75;41.75
73148;PMS7003;61346;48.930;2.266;2023-02-15T02:58:03;89.25;67.00;42.25
73148;PMS7003;61346;48.930;2.266;2023-02-15T03:00:31;82.75;62.25;39.50
73148;PMS7003;61346;48.930;2.266;2023-02-15T03:03:16;78.25;60.00;38.50
73148;PMS7003;61346;48.930;2.266;2023-02-15T03:05:47;85.00;66.25;42.25
73148;PMS7003;61346;48.930;2.266;2023-02-15T03:08:18;85.25;64.75;41.00
73148;PMS7003;61346;48.930;2.266;2023-02-15T03:10:48;89.00;65.00;42.25
73148;PMS7003;61346;48.930;2.266;2023-02-15T03:13:18;89.50;66.50;42.75
73148;PMS7003;61346;48.930;2.266;2023-02-15T03:15:44;88.50;70.25;43.75
73148;PMS7003;61346;48.930;2.266;2023-02-15T03:18:30;89.00;68.00;43.75
73148;PMS7003;61346;48.930;2.266;2023-02-15T03:21:04;87.25;69.50;44.25
73148;PMS7003;61346;48.930;2.266;2023-02-15T03:23:33;85.75;64.25;42.25
73148;PMS7003;61346;48.930;2.266;2023-02-15T03:26:04;88.75;67.00;43.00
73148;PMS7003;61346;48.930;2.266;2023-02-15T03:28:41;91.75;74.25;44.50
73148;PMS7003;61346;48.930;2.266;2023-02-15T03:31:08;89.25;70.50;45.00
73148;PMS7003;61346;48.930;2.266;2023-02-15T03:33:38;92.50;71.25;44.75
73148;PMS7003;61346;48.930;2.266;2023-02-15T03:36:16;94.00;73.00;43.75
73148;PMS7003;61346;48.930;2.266;2023-02-15T03:39:18;92.75;69.75;43.25
73148;PMS7003;61346;48.930;2.266;2023-02-15T03:41:54;57.50;42.00;9.50
73148;PMS7003;61346;48.930;2.266;2023-02-15T03:44:29;90.25;73.00;47.00
73148;PMS7003;61346;48.930;2.266;2023-02-15T03:47:11;91.00;71.00;44.75
73148;PMS7003;61346;48.930;2.266;2023-02-15T03:49:46;87.25;66.75;43.50
73148;PMS7003;61346;48.930;2.266;2023-02-15T03:52:23;91.25;72.00;43.00
73148;PMS7003;61346;48.930;2.266;2023-02-15T03:54:51;88.00;66.25;41.75
73148;PMS7003;61346;48.930;2.266;2023-02-15T03:57:20;94.25;75.00;45.25
73148;PMS7003;61346;48.930;2.266;2023-02-15T04:03:05;92.75;70.25;43.00
73148;PMS7003;61346;48.930;2.266;2023-02-15T04:05:51;102.75;83.50;53.50
73148;PMS7003;61346;48.930;2.266;2023-02-15T04:08:17;95.00;76.25;47.25
73148;PMS7003;61346;48.930;2.266;2023-02-15T04:10:44;100.75;87.50;50.25
73148;PMS7003;61346;48.930;2.266;2023-02-15T04:13:22;98.25;81.75;54.25
73148;PMS7003;61346;48.930;2.266;2023-02-15T04:15:49;94.50;76.75;47.75
73148;PMS7003;61346;48.930;2.266;2023-02-15T04:18:41;116.75;104.50;70.25
73148;PMS7003;61346;48.930;2.266;2023-02-15T04:21:28;117.50;104.00;67.25
73148;PMS7003;61346;48.930;2.266;2023-02-15T04:24:14;84.25;62.75;34.25
73148;PMS7003;61346;48.930;2.266;2023-02-15T04:26:58;100.25;89.25;53.00
73148;PMS7003;61346;48.930;2.266;2023-02-15T04:29:25;101.00;82.50;54.25
73148;PMS7003;61346;48.930;2.266;2023-02-15T04:31:52;98.25;83.50;53.50
73148;PMS7003;61346;48.930;2.266;2023-02-15T04:34:19;95.75;84.25;56.25
73148;PMS7003;61346;48.930;2.266;2023-02-15T04:36:44;96.50;84.00;54.00
73148;PMS7003;61346;48.930;2.266;2023-02-15T04:39:12;93.75;77.75;50.00
73148;PMS7003;61346;48.930;2.266;2023-02-15T04:41:39;92.25;78.00;46.25
73148;PMS7003;61346;48.930;2.266;2023-02-15T04:44:05;98.00;80.25;52.00
73148;PMS7003;61346;48.930;2.266;2023-02-15T04:46:30;91.75;72.00;45.00
73148;PMS7003;61346;48.930;2.266;2023-02-15T04:48:56;96.75;75.50;50.00
73148;PMS7003;61346;48.930;2.266;2023-02-15T04:51:21;98.50;84.00;51.25
73148;PMS7003;61346;48.930;2.266;2023-02-15T04:53:49;95.25;77.75;51.50
73148;PMS7003;61346;48.930;2.266;2023-02-15T04:56:14;97.25;84.25;53.00
73148;PMS7003;61346;48.930;2.266;2023-02-15T04:58:41;98.50;80.50;49.75
73148;PMS7003;61346;48.930;2.266;2023-02-15T05:01:07;95.00;81.00;52.00
73148;PMS7003;61346;48.930;2.266;2023-02-15T05:03:33;99.00;87.00;53.25
73148;PMS7003;61346;48.930;2.266;2023-02-15T05:05:59;96.25;75.50;49.75
73148;PMS7003;61346;48.930;2.266;2023-02-15T05:08:24;103.00;83.25;50.50
73148;PMS7003;61346;48.930;2.266;2023-02-15T05:10:50;98.25;82.00;52.25
73148;PMS7003;61346;48.930;2.266;2023-02-15T05:13:17;98.75;86.75;53.50
73148;PMS7003;61346;48.930;2.266;2023-02-15T05:15:50;93.25;74.25;40.75
73148;PMS7003;61346;48.930;2.266;2023-02-15T05:18:17;98.50;80.25;50.00
73148;PMS7003;61346;48.930;2.266;2023-02-15T05:20:43;95.50;83.00;53.25
73148;PMS7003;61346;48.930;2.266;2023-02-15T05:23:10;93.25;72.50;48.25
73148;PMS7003;61346;48.930;2.266;2023-02-15T05:25:36;98.75;80.75;50.25
73148;PMS7003;61346;48.930;2.266;2023-02-15T05:28:21;93.00;72.00;48.25
73148;PMS7003;61346;48.930;2.266;2023-02-15T05:30:48;97.00;80.00;49.25
73148;PMS7003;61346;48.930;2.266;2023-02-15T05:33:14;94.75;78.00;50.25
73148;PMS7003;61346;48.930;2.266;2023-02-15T05:35:40;94.00;73.75;48.00
73148;PMS7003;61346;48.930;2.266;2023-02-15T05:38:05;97.75;75.50;50.50
73148;PMS7003;61346;48.930;2.266;2023-02-15T05:40:30;93.50;77.25;48.75
73148;PMS7003;61346;48.930;2.266;2023-02-15T05:42:56;98.75;78.00;45.50
73148;PMS7003;61346;48.930;2.266;2023-02-15T05:45:22;92.75;74.50;49.00
73148;PMS7003;61346;48.930;2.266;2023-02-15T05:47:47;94.00;74.50;49.50
73148;PMS7003;61346;48.930;2.266;2023-02-15T05:50:13;94.50;78.00;51.00
73148;PMS7003;61346;48.930;2.266;2023-02-15T05:52:38;103.50;88.00;53.25
73148;PMS7003;61346;48.930;2.266;2023-02-15T05:55:04;94.75;74.25;51.25
73148;PMS7003;61346;48.930;2.266;2023-02-15T05:57:33;97.75;83.50;51.75
73148;PMS7003;61346;48.930;2.266;2023-02-15T06:00:03;98.25;84.00;53.25
73148;PMS7003;61346;48.930;2.266;2023-02-15T06:02:29;98.00;80.00;52.25
73148;PMS7003;61346;48.930;2.266;2023-02-15T06:05:09;97.25;80.00;48.00
73148;PMS7003;61346;48.930;2.266;2023-02-15T06:07:35;94.75;79.75;50.00
73148;PMS7003;61346;48.930;2.266;2023-02-15T06:10:02;96.25;79.50;51.00
73148;PMS7003;61346;48.930;2.266;2023-02-15T06:12:28;96.00;76.75;48.00
73148;PMS7003;61346;48.930;2.266;2023-02-15T06:14:54;98.25;83.50;51.50
73148;PMS7003;61346;48.930;2.266;2023-02-15T06:17:19;96.50;75.50;48.00
73148;PMS7003;61346;48.930;2.266;2023-02-15T06:19:50;90.00;67.50;43.50
73148;PMS7003;61346;48.930;2.266;2023-02-15T06:22:16;92.00;70.75;45.25
73148;PMS7003;61346;48.930;2.266;2023-02-15T06:24:43;89.25;68.75;44.00
73148;PMS7003;61346;48.930;2.266;2023-02-15T06:27:10;90.50;68.25;43.00
73148;PMS7003;61346;48.930;2.266;2023-02-15T06:29:35;90.50;66.75;42.50
73148;PMS7003;61346;48.930;2.266;2023-02-15T06:32:01;86.25;68.75;43.00
73148;PMS7003;61346;48.930;2.266;2023-02-15T06:34:26;88.50;68.00;43.25
73148;PMS7003;61346;48.930;2.266;2023-02-15T06:36:52;91.00;68.50;43.75
73148;PMS7003;61346;48.930;2.266;2023-02-15T06:39:17;89.25;67.50;41.75
73148;PMS7003;61346;48.930;2.266;2023-02-15T06:41:43;83.75;66.00;42.25
73148;PMS7003;61346;48.930;2.266;2023-02-15T06:44:08;88.75;68.25;43.00
73148;PMS7003;61346;48.930;2.266;2023-02-15T06:46:34;86.50;67.50;43.25
73148;PMS7003;61346;48.930;2.266;2023-02-15T06:48:59;84.75;67.00;42.75
73148;PMS7003;61346;48.930;2.266;2023-02-15T06:51:25;91.50;71.00;43.50
73148;PMS7003;61346;48.930;2.266;2023-02-15T06:53:51;86.00;64.75;42.25
73148;PMS7003;61346;48.930;2.266;2023-02-15T06:56:16;86.25;64.75;42.00
73148;PMS7003;61346;48.930;2.266;2023-02-15T06:58:42;84.50;67.25;42.50
73148;PMS7003;61346;48.930;2.266;2023-02-15T07:01:11;90.00;70.75;42.00
73148;PMS7003;61346;48.930;2.266;2023-02-15T07:03:40;94.00;73.25;44.00
73148;PMS7003;61346;48.930;2.266;2023-02-15T07:06:08;90.75;68.75;42.75
73148;PMS7003;61346;48.930;2.266;2023-02-15T07:08:36;98.75;78.00;47.50
73148;PMS7003;61346;48.930;2.266;2023-02-15T07:11:03;96.75;71.75;44.50
73148;PMS7003;61346;48.930;2.266;2023-02-15T07:13:48;87.50;67.50;42.50
73148;PMS7003;61346;48.930;2.266;2023-02-15T07:16:13;89.00;69.25;43.00
73148;PMS7003;61346;48.930;2.266;2023-02-15T07:18:40;89.75;71.25;44.00
73148;PMS7003;61346;48.930;2.266;2023-02-15T07:40:50;95.00;80.00;45.25
73148;PMS7003;61346;48.930;2.266;2023-02-15T07:43:27;103.00;85.00;49.00
73148;PMS7003;61346;48.930;2.266;2023-02-15T07:45:57;98.75;83.50;46.50
73148;PMS7003;61346;48.930;2.266;2023-02-15T07:48:45;96.50;74.00;45.50
73148;PMS7003;61346;48.930;2.266;2023-02-15T07:54:34;94.25;75.75;45.50
73148;PMS7003;61346;48.930;2.266;2023-02-15T08:01:14;91.50;68.50;42.25
73148;PMS7003;61346;48.930;2.266;2023-02-15T09:03:47;93.25;77.25;47.75
73148;PMS7003;61346;48.930;2.266;2023-02-15T09:42:31;93.50;80.75;47.25
73148;PMS7003;61346;48.930;2.266;2023-02-15T10:06:14;123.00;113.75;67.75
73148;PMS7003;61346;48.930;2.266;2023-02-15T10:14:36;99.25;84.25;50.50
73148;PMS7003;61346;48.930;2.266;2023-02-15T10:23:04;103.50;95.50;56.50
73148;PMS7003;61346;48.930;2.266;2023-02-15T10:28:26;99.75;90.25;56.75
73148;PMS7003;61346;48.930;2.266;2023-02-15T10:31:04;105.25;95.25;57.75
73148;PMS7003;61346;48.930;2.266;2023-02-15T10:33:43;105.50;93.50;55.75
73148;PMS7003;61346;48.930;2.266;2023-02-15T11:01:14;103.25;93.50;55.00
73148;PMS7003;61346;48.930;2.266;2023-02-15T11:06:36;103.50;90.00;56.25
73148;PMS7003;61346;48.930;2.266;2023-02-15T11:09:09;99.00;91.50;52.00
73148;PMS7003;61346;48.930;2.266;2023-02-15T11:11:38;100.50;86.00;50.25
73148;PMS7003;61346;48.930;2.266;2023-02-15T11:21:40;104.00;92.50;56.50
73148;PMS7003;61346;48.930;2.266;2023-02-15T11:50:04;100.25;91.00;57.50
73148;PMS7003;61346;48.930;2.266;2023-02-15T12:11:15;112.75;97.25;58.00
73148;PMS7003;61346;48.930;2.266;2023-02-15T12:13:57;104.00;97.75;61.25
73148;PMS7003;61346;48.930;2.266;2023-02-15T12:16:25;99.25;91.75;56.75
73148;PMS7003;61346;48.930;2.266;2023-02-15T12:18:55;105.75;93.25;54.75
73148;PMS7003;61346;48.930;2.266;2023-02-15T12:21:33;114.25;102.00;63.50
73148;PMS7003;61346;48.930;2.266;2023-02-15T12:29:26;99.75;91.25;55.00
73148;PMS7003;61346;48.930;2.266;2023-02-15T12:31:55;101.00;90.75;56.75
73148;PMS7003;61346;48.930;2.266;2023-02-15T12:34:26;103.00;96.50;59.25
73148;PMS7003;61346;48.930;2.266;2023-02-15T12:36:53;99.50;92.75;57.25
73148;PMS7003;61346;48.930;2.266;2023-02-15T12:39:26;94.25;88.75;55.75
73148;PMS7003;61346;48.930;2.266;2023-02-15T12:44:20;95.67;88.33;55.33
73148;PMS7003;61346;48.930;2.266;2023-02-15T12:46:58;95.50;86.75;54.25
73148;PMS7003;61346;48.930;2.266;2023-02-15T12:52:42;89.75;82.00;49.50
73148;PMS7003;61346;48.930;2.266;2023-02-15T12:55:10;83.00;68.25;45.00
73148;PMS7003;61346;48.930;2.266;2023-02-15T12:57:45;80.25;64.50;43.75
73148;PMS7003;61346;48.930;2.266;2023-02-15T13:02:47;83.50;71.00;45.25
73148;PMS7003;61346;48.930;2.266;2023-02-15T13:10:54;80.50;67.00;42.00
73148;PMS7003;61346;48.930;2.266;2023-02-15T13:13:26;77.00;60.25;38.25
73148;PMS7003;61346;48.930;2.266;2023-02-15T13:16:12;77.50;59.00;35.00
73148;PMS7003;61346;48.930;2.266;2023-02-15T13:18:44;75.50;67.75;42.75
73148;PMS7003;61346;48.930;2.266;2023-02-15T13:21:14;72.75;58.00;37.25
73148;PMS7003;61346;48.930;2.266;2023-02-15T13:23:44;96.25;87.75;58.50
73148;PMS7003;61346;48.930;2.266;2023-02-15T13:26:17;98.00;87.00;55.25
73148;PMS7003;61346;48.930;2.266;2023-02-15T13:28:46;96.50;91.00;54.25
73148;PMS7003;61346;48.930;2.266;2023-02-15T13:31:15;97.75;90.50;53.50
73148;PMS7003;61346;48.930;2.266;2023-02-15T13:33:49;94.75;87.00;56.25
73148;PMS7003;61346;48.930;2.266;2023-02-15T13:36:23;103.75;94.75;59.50
73148;PMS7003;61346;48.930;2.266;2023-02-15T13:45:35;104.25;96.25;60.00
73148;PMS7003;61346;48.930;2.266;2023-02-15T13:48:02;107.00;101.00;61.50
73148;PMS7003;61346;48.930;2.266;2023-02-15T14:02:57;96.25;93.50;59.50
73148;PMS7003;61346;48.930;2.266;2023-02-15T14:08:21;102.50;92.50;59.25
73148;PMS7003;61346;48.930;2.266;2023-02-15T14:16:20;93.75;84.00;53.25
73148;PMS7003;61346;48.930;2.266;2023-02-15T14:21:31;93.50;84.25;54.25
73148;PMS7003;61346;48.930;2.266;2023-02-15T14:29:53;90.75;77.50;50.00
73148;PMS7003;61346;48.930;2.266;2023-02-15T14:32:29;80.50;71.75;43.50
73148;PMS7003;61346;48.930;2.266;2023-02-15T14:34:58;90.25;79.00;49.75
73148;PMS7003;61346;48.930;2.266;2023-02-15T14:37:38;91.00;80.75;50.25
73148;PMS7003;61346;48.930;2.266;2023-02-15T14:46:14;74.25;63.00;34.75
73148;PMS7003;61346;48.930;2.266;2023-02-15T15:05:10;87.25;73.50;47.00
73148;PMS7003;61346;48.930;2.266;2023-02-15T15:07:46;85.75;80.25;51.75
73148;PMS7003;61346;48.930;2.266;2023-02-15T15:12:45;81.25;76.75;49.25
73148;PMS7003;61346;48.930;2.266;2023-02-15T15:25:41;81.75;71.75;45.25
73148;PMS7003;61346;48.930;2.266;2023-02-15T15:28:15;86.50;74.00;46.25
73148;PMS7003;61346;48.930;2.266;2023-02-15T15:30:59;82.50;70.25;46.25
73148;PMS7003;61346;48.930;2.266;2023-02-15T15:50:04;79.00;71.75;44.75
73148;PMS7003;61346;48.930;2.266;2023-02-15T15:52:37;82.50;68.50;44.00
73148;PMS7003;61346;48.930;2.266;2023-02-15T15:55:05;74.00;64.00;40.50
73148;PMS7003;61346;48.930;2.266;2023-02-15T15:57:41;82.75;64.50;41.25
73148;PMS7003;61346;48.930;2.266;2023-02-15T16:03:05;77.00;66.25;44.00
73148;PMS7003;61346;48.930;2.266;2023-02-15T16:05:37;74.00;63.75;38.00
73148;PMS7003;61346;48.930;2.266;2023-02-15T16:08:03;72.50;59.75;39.75
73148;PMS7003;61346;48.930;2.266;2023-02-15T16:10:29;74.00;62.50;42.25
73148;PMS7003;61346;48.930;2.266;2023-02-15T16:12:57;71.25;59.75;37.25
73148;PMS7003;61346;48.930;2.266;2023-02-15T16:15:45;70.75;58.50;40.00
73148;PMS7003;61346;48.930;2.266;2023-02-15T16:18:14;71.00;55.50;39.00
73148;PMS7003;61346;48.930;2.266;2023-02-15T16:20:42;73.50;62.50;40.00
73148;PMS7003;61346;48.930;2.266;2023-02-15T16:23:22;77.00;66.50;39.25
73148;PMS7003;61346;48.930;2.266;2023-02-15T16:28:50;68.50;56.00;37.00
73148;PMS7003;61346;48.930;2.266;2023-02-15T16:31:18;73.00;62.00;39.75
73148;PMS7003;61346;48.930;2.266;2023-02-15T16:33:47;75.50;61.00;38.00
73148;PMS7003;61346;48.930;2.266;2023-02-15T16:36:26;77.25;61.00;39.25
73148;PMS7003;61346;48.930;2.266;2023-02-15T16:41:22;71.50;58.50;37.25
73148;PMS7003;61346;48.930;2.266;2023-02-15T16:43:53;72.25;61.25;39.00
73148;PMS7003;61346;48.930;2.266;2023-02-15T16:46:28;77.00;64.75;41.50
73148;PMS7003;61346;48.930;2.266;2023-02-15T16:49:03;77.25;65.25;38.00
73148;PMS7003;61346;48.930;2.266;2023-02-15T16:51:36;72.00;58.00;38.25
73148;PMS7003;61346;48.930;2.266;2023-02-15T16:54:05;72.75;58.75;38.25
73148;PMS7003;61346;48.930;2.266;2023-02-15T16:56:32;71.75;57.00;36.00
73148;PMS7003;61346;48.930;2.266;2023-02-15T16:58:59;69.00;54.00;35.75
73148;PMS7003;61346;48.930;2.266;2023-02-15T17:01:26;72.50;56.75;35.00
73148;PMS7003;61346;48.930;2.266;2023-02-15T17:09:31;74.50;58.50;37.00
73148;PMS7003;61346;48.930;2.266;2023-02-15T17:11:57;72.75;57.50;36.00
73148;PMS7003;61346;48.930;2.266;2023-02-15T17:14:31;70.75;56.50;35.75
73148;PMS7003;61346;48.930;2.266;2023-02-15T17:17:01;73.75;57.00;35.25
73148;PMS7003;61346;48.930;2.266;2023-02-15T17:19:33;72.25;56.50;36.00
73148;PMS7003;61346;48.930;2.266;2023-02-15T17:22:14;70.50;55.75;36.00
73148;PMS7003;61346;48.930;2.266;2023-02-15T17:24:43;71.75;56.00;36.00
73148;PMS7003;61346;48.930;2.266;2023-02-15T17:27:14;74.00;59.50;36.00
73148;PMS7003;61346;48.930;2.266;2023-02-15T17:29:55;73.50;57.50;36.00
73148;PMS7003;61346;48.930;2.266;2023-02-15T17:32:23;70.25;55.25;36.25
73148;PMS7003;61346;48.930;2.266;2023-02-15T17:34:56;71.75;56.75;35.75
73148;PMS7003;61346;48.930;2.266;2023-02-15T17:37:42;71.25;55.75;35.50
73148;PMS7003;61346;48.930;2.266;2023-02-15T17:40:45;71.25;55.50;34.25
73148;PMS7003;61346;48.930;2.266;2023-02-15T17:43:04;72.75;55.50;35.25
73148;PMS7003;61346;48.930;2.266;2023-02-15T17:45:36;73.50;56.50;36.00
73148;PMS7003;61346;48.930;2.266;2023-02-15T17:48:09;67.75;54.50;35.75
73148;PMS7003;61346;48.930;2.266;2023-02-15T17:51:04;72.50;55.75;36.00
73148;PMS7003;61346;48.930;2.266;2023-02-15T18:06:19;69.50;54.50;37.00
73148;PMS7003;61346;48.930;2.266;2023-02-15T18:58:28;45.50;36.75;13.50
73148;PMS7003;61346;48.930;2.266;2023-02-15T19:34:03;75.00;58.50;37.50
73148;PMS7003;61346;48.930;2.266;2023-02-15T19:40:32;74.50;60.00;37.75
73148;PMS7003;61346;48.930;2.266;2023-02-15T19:55:33;67.75;53.50;34.50
73148;PMS7003;61346;48.930;2.266;2023-02-15T19:58:20;69.75;55.50;35.50
73148;PMS7003;61346;48.930;2.266;2023-02-15T20:01:04;64.75;49.25;34.75
73148;PMS7003;61346;48.930;2.266;2023-02-15T20:06:22;64.25;52.25;34.25
73148;PMS7003;61346;48.930;2.266;2023-02-15T20:09:06;65.25;50.50;33.25
73148;PMS7003;61346;48.930;2.266;2023-02-15T20:18:20;61.75;50.75;32.75
73148;PMS7003;61346;48.930;2.266;2023-02-15T20:21:14;63.00;51.00;32.75
73148;PMS7003;61346;48.930;2.266;2023-02-15T20:23:43;58.00;49.25;34.00
73148;PMS7003;61346;48.930;2.266;2023-02-15T20:26:19;62.25;50.75;33.00
73148;PMS7003;61346;48.930;2.266;2023-02-15T20:32:33;68.75;52.50;34.50
73148;PMS7003;61346;48.930;2.266;2023-02-15T20:35:21;64.75;51.25;34.25
73148;PMS7003;61346;48.930;2.266;2023-02-15T20:52:16;76.75;59.50;40.25
73148;PMS7003;61346;48.930;2.266;2023-02-15T20:55:08;76.25;59.75;38.00
73148;PMS7003;61346;48.930;2.266;2023-02-15T21:04:21;72.75;58.25;37.75
73148;PMS7003;61346;48.930;2.266;2023-02-15T21:14:05;65.25;52.75;34.75
73148;PMS7003;61346;48.930;2.266;2023-02-15T21:20:55;65.00;50.25;33.25
73148;PMS7003;61346;48.930;2.266;2023-02-15T21:23:26;64.25;50.75;32.50
73148;PMS7003;61346;48.930;2.266;2023-02-15T21:33:03;58.75;46.25;32.25
73148;PMS7003;61346;48.930;2.266;2023-02-15T21:35:37;62.25;48.75;33.75
73148;PMS7003;61346;48.930;2.266;2023-02-15T21:41:30;64.75;49.00;32.25
73148;PMS7003;61346;48.930;2.266;2023-02-15T21:44:23;58.75;48.00;33.00
73148;PMS7003;61346;48.930;2.266;2023-02-15T21:47:17;58.75;48.50;30.00
73148;PMS7003;61346;48.930;2.266;2023-02-15T21:50:13;59.75;45.00;29.50
73148;PMS7003;61346;48.930;2.266;2023-02-15T21:53:09;59.75;48.00;32.00
73148;PMS7003;61346;48.930;2.266;2023-02-15T21:55:37;64.00;50.75;31.50
73148;PMS7003;61346;48.930;2.266;2023-02-15T21:58:05;59.00;47.00;31.25
73148;PMS7003;61346;48.930;2.266;2023-02-15T22:00:35;61.75;47.50;31.25
73148;PMS7003;61346;48.930;2.266;2023-02-15T22:05:59;57.50;45.25;32.00
73148;PMS7003;61346;48.930;2.266;2023-02-15T22:08:25;61.25;48.00;32.25
73148;PMS7003;61346;48.930;2.266;2023-02-15T22:10:51;61.50;48.25;33.00
73148;PMS7003;61346;48.930;2.266;2023-02-15T22:15:57;61.00;47.25;31.00
73148;PMS7003;61346;48.930;2.266;2023-02-15T22:18:24;54.00;45.00;29.25
73148;PMS7003;61346;48.930;2.266;2023-02-15T22:20:59;63.00;49.00;31.75
73148;PMS7003;61346;48.930;2.266;2023-02-15T22:23:26;56.00;44.25;31.25
73148;PMS7003;61346;48.930;2.266;2023-02-15T22:25:53;60.75;49.25;32.00
73148;PMS7003;61346;48.930;2.266;2023-02-15T22:28:25;64.00;51.25;33.00
73148;PMS7003;61346;48.930;2.266;2023-02-15T22:30:54;60.50;50.00;33.00
73148;PMS7003;61346;48.930;2.266;2023-02-15T22:33:22;64.00;48.50;32.00
73148;PMS7003;61346;48.930;2.266;2023-02-15T22:35:49;63.50;51.00;32.00
73148;PMS7003;61346;48.930;2.266;2023-02-15T22:38:15;59.75;47.00;31.25
73148;PMS7003;61346;48.930;2.266;2023-02-15T22:40:41;58.50;45.75;30.25
73148;PMS7003;61346;48.930;2.266;2023-02-15T22:43:09;58.25;45.75;30.75
73148;PMS7003;61346;48.930;2.266;2023-02-15T22:45:45;63.75;49.50;33.00
73148;PMS7003;61346;48.930;2.266;2023-02-15T22:48:10;61.25;49.25;32.00
73148;PMS7003;61346;48.930;2.266;2023-02-15T22:50:36;59.75;47.50;32.50
73148;PMS7003;61346;48.930;2.266;2023-02-15T22:53:02;61.75;47.75;31.25
73148;PMS7003;61346;48.930;2.266;2023-02-15T22:55:31;67.75;52.75;34.25
73148;PMS7003;61346;48.930;2.266;2023-02-15T22:58:01;63.75;50.50;32.00
73148;PMS7003;61346;48.930;2.266;2023-02-15T23:00:28;63.25;50.25;33.00
73148;PMS7003;61346;48.930;2.266;2023-02-15T23:02:57;62.75;50.50;32.00
73148;PMS7003;61346;48.930;2.266;2023-02-15T23:05:28;59.75;49.00;32.25
73148;PMS7003;61346;48.930;2.266;2023-02-15T23:07:55;59.75;49.50;32.25
73148;PMS7003;61346;48.930;2.266;2023-02-15T23:10:22;64.50;47.50;31.25
73148;PMS7003;61346;48.930;2.266;2023-02-15T23:12:53;62.25;49.00;32.00
73148;PMS7003;61346;48.930;2.266;2023-02-15T23:15:40;63.25;52.00;35.25
73148;PMS7003;61346;48.930;2.266;2023-02-15T23:20:43;66.50;52.00;33.25
73148;PMS7003;61346;48.930;2.266;2023-02-15T23:23:10;65.50;50.75;32.75
73148;PMS7003;61346;48.930;2.266;2023-02-15T23:25:39;66.75;53.50;35.25
73148;PMS7003;61346;48.930;2.266;2023-02-15T23:28:08;73.00;55.00;35.25